Latest Weather Observations for Port Hedland

IDW60801

Issued at 2:13 pm WST Sunday 10 May 2026 (issued every 10 minutes, with the page automatically refreshed every 10 minutes)

About weather observations | Map of weather stations | Latest weather observations for WA | Other Formats
Station Details ID: 004032 Name: PORT HEDLAND AIRPORT Lat: -20.37 Lon: 118.63 Height: 6.4 m
Data from the previous 72 hours. | See also: Recent months at Port Hedland
Date/Time
WST
Temp
°C
App
Temp
°C
Dew
Point
°C
Rel
Hum
%
Delta-T
°C
Wind Press
QNH
hPa
Press
MSL
hPa
Rain since
9am
mm
Dir  Spd
km/h
Gust
km/h
Spd
kts
Gust
kts
10/02:00pm 29.7 24.3 1.2 16 13.9 SE 19 28 10 15 1014.8 1014.7 0.0
10/01:30pm 29.6 24.1 2.0 17 13.6 ESE 20 35 11 19 1015.1 1015.0 0.0
10/01:00pm 29.8 23.2 2.1 17 13.7 E 26 37 14 20 1015.3 1015.2 0.0
10/12:30pm 29.8 23.3 2.9 18 13.5 E 26 35 14 19 1015.9 1015.8 0.0
10/12:00pm 28.8 22.2 2.1 18 13.1 ESE 26 41 14 22 1016.5 1016.4 0.0
10/11:30am 28.5 21.4 1.1 17 13.2 ESE 28 41 15 22 1017.1 1017.0 0.0
10/11:00am 27.9 20.3 0.6 17 12.9 ESE 30 41 16 22 1017.7 1017.6 0.0
10/10:30am 27.3 17.9 0.1 17 12.8 E 39 50 21 27 1018.0 1017.9 0.0
10/10:00am 26.4 17.4 0.2 18 12.2 ESE 37 50 20 27 1018.3 1018.2 0.0
10/09:30am 25.6 15.9 0.3 19 11.8 E 41 52 22 28 1018.4 1018.3 0.0
10/09:00am 24.4 16.1 0.0 20 11.1 ESE 33 46 18 25 1018.5 1018.4 0.0
10/08:30am 23.2 14.5 -0.3 21 10.6 ESE 35 46 19 25 1018.3 1018.2 0.0
10/08:00am 21.9 15.0 -0.1 23 9.8 ESE 26 37 14 20 1018.1 1018.0 0.0
10/07:30am 20.2 14.7 0.6 27 8.8 ESE 19 28 10 15 1017.9 1017.8 0.0
10/07:00am 18.8 13.6 0.4 29 8.1 ESE 17 24 9 13 1017.8 1017.7 0.0
10/06:30am 17.8 12.7 0.5 31 7.6 ESE 17 24 9 13 1017.4 1017.3 0.0
10/06:00am 17.7 12.5 0.4 31 7.5 SE 17 20 9 11 1017.1 1017.0 0.0
10/05:30am 18.0 12.8 0.2 30 7.8 SE 17 22 9 12 1017.2 1017.1 0.0
10/05:00am 18.1 12.9 0.3 30 7.8 SE 17 22 9 12 1017.0 1016.9 0.0
10/04:30am 17.4 13.1 1.0 33 7.2 SE 13 20 7 11 1016.7 1016.6 0.0
10/04:00am 15.3 11.1 1.8 40 5.9 SSE 13 17 7 9 1016.6 1016.5 0.0
10/03:30am 14.9 10.7 1.8 41 5.7 SSE 13 15 7 8 1016.7 1016.6 0.0
10/03:00am 15.4 10.8 1.5 39 6.1 SSE 15 17 8 9 1016.8 1016.7 0.0
10/02:30am 16.1 11.5 1.4 37 6.5 SSE 15 19 8 10 1016.9 1016.8 0.0
10/02:00am 16.4 12.1 0.9 35 6.7 SSE 13 17 7 9 1017.0 1016.9 0.0
10/01:30am 16.8 12.5 0.9 34 7.0 SSE 13 15 7 8 1017.0 1016.9 0.0
10/01:00am 16.3 12.0 0.8 35 6.7 SSE 13 17 7 9 1017.0 1016.9 0.0
10/12:30am 16.1 11.8 0.7 35 6.7 SSE 13 15 7 8 1017.1 1017.0 0.0
10/12:00am 16.3 12.0 0.8 35 6.7 SSE 13 15 7 8 1017.1 1017.0 0.0
 
Date/Time
WST
Temp
°C
App
Temp
°C
Dew
Point
°C
Rel
Hum
%
Delta-T
°C
Wind Press
QNH
hPa
Press
MSL
hPa
Rain since
9am
mm
Dir  Spd
km/h
Gust
km/h
Spd
kts
Gust
kts
09/11:30pm 16.7 12.0 0.8 34 6.9 SSE 15 17 8 9 1017.1 1017.0 0.0
09/11:00pm 16.6 12.3 0.7 34 6.9 SSE 13 17 7 9 1017.2 1017.1 0.0
09/10:30pm 16.8 12.1 0.9 34 7.0 SSE 15 17 8 9 1017.2 1017.1 0.0
09/10:00pm 17.2 12.5 1.2 34 7.1 SSE 15 17 8 9 1017.2 1017.1 0.0
09/09:30pm 17.9 13.6 1.0 32 7.5 SSE 13 17 7 9 1017.1 1017.0 0.0
09/09:00pm 18.2 13.6 1.3 32 7.5 SSE 15 19 8 10 1017.0 1016.9 0.0
09/08:30pm 18.9 14.3 1.4 31 7.9 SSE 15 17 8 9 1016.8 1016.7 0.0
09/08:00pm 19.7 15.0 1.2 29 8.3 SSE 15 19 8 10 1016.6 1016.5 0.0
09/07:30pm 20.4 16.1 1.3 28 8.7 SSE 13 19 7 10 1016.4 1016.3 0.0
09/07:00pm 21.5 17.6 1.2 26 9.3 SE 11 15 6 8 1016.1 1016.0 0.0
09/06:30pm 24.0 19.6 0.4 21 10.9 SE 13 19 7 10 1015.9 1015.8 0.0
09/06:00pm 24.9 20.4 -0.3 19 11.5 SE 13 17 7 9 1015.5 1015.4 0.0
09/05:30pm 26.6 20.6 -1.3 16 12.7 SE 20 26 11 14 1015.2 1015.1 0.0
09/05:00pm 27.6 21.7 -0.5 16 13.1 SE 20 30 11 16 1015.1 1015.0 0.0
09/04:30pm 28.1 21.8 -0.9 15 13.4 SE 22 32 12 17 1014.7 1014.6 0.0
09/04:00pm 28.4 22.1 -0.7 15 13.6 SE 22 37 12 20 1014.3 1014.2 0.0
09/03:30pm 28.3 22.6 -0.8 15 13.5 SE 19 26 10 14 1014.7 1014.6 0.0
09/03:00pm 28.6 22.9 0.3 16 13.4 SE 20 30 11 16 1014.9 1014.8 0.0
09/02:30pm 28.4 22.5 -0.7 15 13.6 ESE 20 32 11 17 1014.9 1014.8 0.0
09/02:00pm 28.1 21.9 -0.1 16 13.2 SE 22 41 12 22 1015.1 1015.0 0.0
09/01:30pm 28.5 23.1 1.1 17 13.2 SE 19 30 10 16 1015.5 1015.4 0.0
09/01:00pm 27.6 21.2 1.2 18 12.6 ESE 24 35 13 19 1015.9 1015.8 0.0
09/12:30pm 27.2 20.5 1.6 19 12.3 E 26 39 14 21 1016.4 1016.3 0.0
09/12:00pm 27.0 20.0 2.1 20 12.1 ESE 28 41 15 22 1016.9 1016.8 0.0
09/11:30am 26.9 20.4 2.7 21 11.9 ESE 26 39 14 21 1017.5 1017.4 0.0
09/11:00am 26.8 20.0 3.3 22 11.6 ESE 28 41 15 22 1018.1 1018.0 0.0
09/10:30am 25.8 18.0 3.1 23 11.1 E 33 46 18 25 1018.5 1018.4 0.0
09/10:00am 25.3 17.5 2.7 23 10.9 ESE 33 48 18 26 1018.8 1018.7 0.0
09/09:30am 24.7 18.0 3.4 25 10.4 ESE 28 39 15 21 1019.3 1019.3 0.0
09/09:00am 24.1 17.0 3.4 26 10.0 ESE 30 41 16 22 1019.3 1019.3 0.0
09/08:30am 23.0 15.8 3.0 27 9.6 ESE 30 44 16 24 1019.3 1019.3 0.0
09/08:00am 22.0 15.1 2.7 28 9.1 ESE 28 43 15 23 1019.4 1019.4 0.0
09/07:30am 20.6 15.3 2.9 31 8.3 SE 20 28 11 15 1019.2 1019.2 0.0
09/07:00am 19.0 14.2 2.4 33 7.6 SE 17 22 9 12 1018.8 1018.7 0.0
09/06:30am 17.7 13.2 2.1 35 7.0 SE 15 20 8 11 1018.5 1018.4 0.0
09/06:00am 17.8 12.9 2.2 35 7.1 SE 17 20 9 11 1018.1 1018.0 0.0
09/05:30am 18.1 13.6 2.0 34 7.3 SE 15 19 8 10 1018.1 1018.0 0.0
09/05:00am 18.8 14.3 2.2 33 7.6 SE 15 20 8 11 1017.9 1017.8 0.0
09/04:30am 18.8 14.7 2.2 33 7.6 SE 13 20 7 11 1017.8 1017.7 0.0
09/04:00am 19.1 14.6 2.0 32 7.8 SE 15 20 8 11 1017.5 1017.4 0.0
09/03:30am 19.2 15.1 2.1 32 7.8 SE 13 17 7 9 1017.4 1017.3 0.0
09/03:00am 19.7 15.2 2.1 31 8.1 SE 15 19 8 10 1017.3 1017.2 0.0
09/02:30am 20.4 15.9 2.3 30 8.4 SE 15 19 8 10 1017.4 1017.3 0.0
09/02:00am 21.2 16.7 2.0 28 8.9 SE 15 20 8 11 1017.7 1017.6 0.0
09/01:30am 21.7 17.2 1.9 27 9.2 SE 15 20 8 11 1017.8 1017.7 0.0
09/01:00am 22.3 17.4 1.9 26 9.5 ESE 17 22 9 12 1017.7 1017.6 0.0
09/12:30am 22.8 17.5 1.8 25 9.8 ESE 19 24 10 13 1017.7 1017.6 0.0
09/12:00am 23.1 17.7 1.5 24 10.0 ESE 19 26 10 14 1017.8 1017.7 0.0
 
Date/Time
WST
Temp
°C
App
Temp
°C
Dew
Point
°C
Rel
Hum
%
Delta-T
°C
Wind Press
QNH
hPa
Press
MSL
hPa
Rain since
9am
mm
Dir  Spd
km/h
Gust
km/h
Spd
kts
Gust
kts
08/11:30pm 23.1 17.7 1.5 24 10.1 ESE 19 28 10 15 1017.7 1017.6 0.0
08/11:00pm 23.2 17.6 1.5 24 10.1 ESE 20 28 11 15 1017.8 1017.7 0.0
08/10:30pm 22.7 17.4 1.7 25 9.8 SE 19 24 10 13 1017.7 1017.6 0.0
08/10:00pm 22.0 17.0 1.6 26 9.4 ESE 17 22 9 12 1017.6 1017.5 0.0
08/09:30pm 21.9 17.4 2.1 27 9.3 SE 15 20 8 11 1017.7 1017.6 0.0
08/09:00pm 22.5 18.0 2.1 26 9.6 SE 15 20 8 11 1017.5 1017.4 0.0
08/08:30pm 22.8 18.2 1.8 25 9.8 SE 15 19 8 10 1017.3 1017.2 0.0
08/08:00pm 23.4 18.8 1.7 24 10.2 SE 15 19 8 10 1017.0 1016.9 0.0
08/07:30pm 23.1 19.7 2.0 25 9.9 SE 9 13 5 7 1016.7 1016.6 0.0
08/07:00pm 23.9 20.2 2.1 24 10.3 ESE 11 15 6 8 1016.3 1016.2 0.0
08/06:30pm 24.0 19.9 2.2 24 10.4 ESE 13 15 7 8 1016.0 1015.9 0.0
08/06:00pm 25.0 20.9 2.4 23 10.9 ESE 13 17 7 9 1015.6 1015.5 0.0
08/05:30pm 27.1 21.5 1.5 19 12.3 E 20 24 11 13 1015.5 1015.4 0.0
08/05:00pm 28.1 22.4 0.8 17 13.0 E 20 26 11 14 1015.5 1015.4 0.0
08/04:30pm 28.6 21.3 0.3 16 13.4 ESE 28 35 15 19 1015.2 1015.1 0.0
08/04:00pm 28.6 22.2 1.2 17 13.2 ESE 24 32 13 17 1014.9 1014.8 0.0
08/03:30pm 28.8 22.1 1.3 17 13.3 E 26 33 14 18 1015.1 1015.0 0.0
08/03:00pm 28.5 21.4 1.1 17 13.2 ESE 28 41 15 22 1015.2 1015.1 0.0
08/02:30pm 30.0 22.5 1.5 16 14.0 E 30 41 16 22 1015.2 1015.1 0.0
08/02:00pm 28.3 20.3 1.7 18 12.9 ESE 33 44 18 24 1014.8 1014.7 0.0
08/01:30pm 28.7 21.0 2.1 18 13.1 E 32 43 17 23 1015.6 1015.5 0.0
08/01:16pm 28.7 20.9 2.8 19 12.9 E 33 52 18 28 1015.8 1015.7 0.0
08/01:00pm 28.8 20.7 1.3 17 13.3 E 33 48 18 26 1016.2 1016.1 0.0
08/12:30pm 29.5 21.3 2.7 18 13.4 E 35 48 19 26 1016.6 1016.5 0.0
08/12:00pm 28.0 18.6 2.2 19 12.6 E 41 56 22 30 1017.2 1017.1 0.0
08/11:32am 28.1 19.4 2.3 19 12.7 E 37 59 20 32 1017.8 1017.7 0.0
08/11:30am 28.1 19.4 2.3 19 12.7 E 37 46 20 25 1017.9 1017.8 0.0
08/11:00am 27.7 18.7 2.7 20 12.3 E 39 57 21 31 1018.2 1018.1 0.0
08/10:57am 27.9 19.0 2.9 20 12.4 E 39 57 21 31 1018.3 1018.2 0.0
08/10:30am 26.8 17.5 2.7 21 11.8 ESE 41 56 22 30 1018.9 1018.8 0.0
08/10:00am 26.8 16.6 3.3 22 11.6 E 46 59 25 32 1019.1 1019.1 0.0
08/09:38am 25.9 16.0 2.6 22 11.3 E 44 63 24 34 1019.2 1019.2 0.0
08/09:30am 25.7 14.7 3.0 23 11.1 E 50 63 27 34 1019.5 1019.5 0.0
08/09:00am 24.9 14.9 2.4 23 10.8 ESE 44 61 24 33 1019.6 1019.6 0.0
08/08:44am 24.4 14.6 2.5 24 10.5 ESE 43 65 23 35 1019.4 1019.4 0.0
08/08:30am 24.1 14.8 2.9 25 10.2 ESE 41 56 22 30 1019.5 1019.5 0.0
08/08:17am 23.7 14.3 2.5 25 10.1 ESE 41 61 22 33 1019.5 1019.5 0.0
08/08:00am 22.8 15.1 2.3 26 9.7 ESE 32 46 17 25 1019.5 1019.5 0.0
08/07:30am 21.5 15.3 2.2 28 9.0 ESE 24 33 13 18 1019.4 1019.4 0.0
08/07:00am 21.0 14.7 1.8 28 8.8 ESE 24 33 13 18 1019.2 1019.2 0.0
08/06:30am 20.8 14.5 1.6 28 8.8 ESE 24 32 13 17 1018.8 1018.7 0.0
08/06:00am 21.0 14.4 1.8 28 8.8 ESE 26 35 14 19 1018.3 1018.2 0.0
08/05:30am 21.4 14.7 1.7 27 9.1 ESE 26 33 14 18 1018.3 1018.2 0.0
08/05:00am 21.8 15.1 1.5 26 9.3 ESE 26 33 14 18 1017.9 1017.8 0.0
08/04:30am 22.4 15.3 1.4 25 9.7 ESE 28 37 15 20 1017.5 1017.4 0.0
08/04:00am 22.4 16.5 1.4 25 9.7 ESE 22 33 12 18 1017.3 1017.2 0.0
08/03:30am 22.7 16.0 1.7 25 9.8 ESE 26 33 14 18 1017.1 1017.0 0.0
08/03:00am 22.9 17.0 1.9 25 9.8 ESE 22 35 12 19 1017.0 1016.9 0.0
08/02:30am 23.3 17.0 1.6 24 10.2 ESE 24 33 13 18 1017.1 1017.0 0.0
08/02:00am 23.5 17.2 1.8 24 10.2 ESE 24 35 13 19 1017.0 1016.9 0.0
08/01:30am 23.6 17.4 1.9 24 10.2 ESE 24 32 13 17 1017.0 1016.9 0.0
08/01:00am 23.9 18.1 2.1 24 10.3 ESE 22 30 12 16 1017.1 1017.0 0.0
08/12:30am 24.1 18.3 2.3 24 10.4 ESE 22 30 12 16 1017.1 1017.0 0.0
08/12:00am 24.3 19.0 3.0 25 10.3 ESE 20 30 11 16 1017.2 1017.1 0.0
 
Date/Time
WST
Temp
°C
App
Temp
°C
Dew
Point
°C
Rel
Hum
%
Delta-T
°C
Wind Press
QNH
hPa
Press
MSL
hPa
Rain since
9am
mm
Dir  Spd
km/h
Gust
km/h
Spd
kts
Gust
kts
07/11:30pm 24.7 19.1 3.4 25 10.4 ESE 22 32 12 17 1017.2 1017.1 0.0
07/11:00pm 24.9 19.3 3.5 25 10.5 ESE 22 32 12 17 1017.2 1017.1 0.0
07/10:30pm 25.1 20.0 4.3 26 10.4 ESE 20 28 11 15 1017.2 1017.1 0.0
07/10:00pm 25.3 19.5 4.4 26 10.4 ESE 24 32 13 17 1017.1 1017.0 0.0
07/09:30pm 25.1 20.5 5.8 29 9.9 ESE 19 24 10 13 1017.0 1016.9 0.0
07/09:00pm 23.0 19.5 7.1 36 8.2 ESE 15 19 8 10 1016.8 1016.7 0.0
07/08:30pm 22.8 20.3 8.1 39 7.7 E 11 13 6 7 1016.6 1016.5 0.0
07/08:00pm 24.0 21.2 8.4 37 8.3 E 13 17 7 9 1016.2 1016.1 0.0
07/07:30pm 24.8 22.6 10.7 41 7.9 E 13 15 7 8 1015.8 1015.7 0.0
07/07:00pm 26.0 23.7 11.7 41 8.1 E 15 17 8 9 1015.4 1015.3 0.0
07/06:30pm 26.2 25.2 15.6 52 6.4 NE 15 19 8 10 1015.2 1015.1 0.0
07/06:00pm 26.5 26.6 16.4 53 6.2 NE 11 15 6 8 1014.9 1014.8 0.0
07/05:30pm 26.8 26.3 17.0 55 6.1 NE 15 20 8 11 1014.5 1014.4 0.0
07/05:00pm 30.1 26.6 12.1 33 10.5 E 22 32 12 17 1014.2 1014.1 0.0
07/04:30pm 31.3 25.3 7.1 22 13.1 E 28 37 15 20 1014.1 1014.0 0.0
07/04:00pm 31.8 25.4 6.8 21 13.5 E 30 43 16 23 1013.8 1013.7 0.0
07/03:49pm 32.7 27.0 8.2 22 13.6 ENE 28 46 15 25 1013.7 1013.6 0.0
07/03:30pm 32.3 26.1 7.9 22 13.5 E 30 39 16 21 1013.7 1013.6 0.0
07/03:00pm 32.8 26.1 8.3 22 13.7 ENE 33 43 18 23 1013.9 1013.8 0.0
07/02:30pm 32.6 26.5 8.1 22 13.6 ENE 30 41 16 22 1014.0 1013.9 0.0
07/02:16pm 31.5 25.5 8.5 24 12.8 E 30 41 16 22 1014.1 1014.0 0.0

Other formats

Comma delimited format used in spreadsheet applications
http://www.bom.gov.au/fwo/IDW60801/IDW60801.94312.axf

JavaScript Object Notation format (JSON) in row-major order
http://www.bom.gov.au/fwo/IDW60801/IDW60801.94312.json

Data quality

Most of these data are generated automatically and are frequently updated. Quality checks on data are not normally performed. It is possible for incorrect values to appear. Refer to information at About Latest Weather Observations and please check the disclaimer before using these data.